createdAt,value
2022-09-12T00:01:51.275Z,94850.34
2022-09-12T00:04:17.975Z,94844.38
2022-09-12T00:06:45.140Z,94849.28
2022-09-12T00:09:13.872Z,94847.78
2022-09-12T00:11:44.138Z,94855.22
2022-09-12T00:14:13.120Z,94858.69
2022-09-12T00:16:39.793Z,94859.13
2022-09-12T00:19:07.762Z,94854.22
2022-09-12T00:21:36.088Z,94860.66
2022-09-12T00:24:03.037Z,94854.91
2022-09-12T00:26:29.607Z,94853.88
2022-09-12T00:28:56.192Z,94853.53
2022-09-12T00:31:25.141Z,94866.47
2022-09-12T00:33:53.091Z,94842.31
2022-09-12T00:36:22.610Z,94856.66
2022-09-12T00:38:50.539Z,94852.25
2022-09-12T00:41:22.311Z,94841.97
2022-09-12T00:43:51.663Z,94854.50
2022-09-12T00:46:47.415Z,94850.94
2022-09-12T00:49:34.915Z,94846.34
2022-09-12T00:52:12.005Z,94842.59
2022-09-12T00:54:48.813Z,94845.25
2022-09-12T00:57:17.420Z,94837.53
2022-09-12T01:00:24.436Z,94842.84
2022-09-12T01:02:57.300Z,94843.56
2022-09-12T01:05:26.871Z,94845.06
2022-09-12T01:07:54.673Z,94827.28
2022-09-12T01:10:21.487Z,94842.69
2022-09-12T01:12:48.441Z,94847.38
2022-09-12T01:15:15.406Z,94845.88
2022-09-12T01:18:00.754Z,94845.88
2022-09-12T01:20:45.339Z,94849.31
2022-09-12T01:23:31.277Z,94843.00
2022-09-12T01:26:26.480Z,94838.91
2022-09-12T01:29:11.937Z,94839.59
2022-09-12T01:31:51.597Z,94846.25
2022-09-12T01:34:30.495Z,94840.53
2022-09-12T01:37:31.590Z,94834.53
2022-09-12T01:40:14.241Z,94853.19
2022-09-12T01:42:57.129Z,94844.13
2022-09-12T01:45:30.331Z,94843.00
2022-09-12T01:48:03.177Z,94831.16
2022-09-12T01:50:37.583Z,94828.28
2022-09-12T01:53:14.678Z,94839.22
2022-09-12T01:55:51.434Z,94838.16
2022-09-12T01:58:29.243Z,94833.66
2022-09-12T02:01:02.979Z,94843.47
2022-09-12T02:03:43.139Z,94839.13
2022-09-12T02:06:19.216Z,94840.19
2022-09-12T02:08:52.211Z,94838.69
2022-09-12T02:11:20.464Z,94835.75
2022-09-12T02:14:01.036Z,94843.28
2022-09-12T02:16:42.126Z,94837.03
2022-09-12T02:19:18.684Z,94839.31
2022-09-12T02:21:55.220Z,94813.72
2022-09-12T02:24:25.948Z,94820.22
2022-09-12T02:27:03.354Z,94788.50
2022-09-12T02:29:30.320Z,94809.44
2022-09-12T02:32:08.764Z,94833.00
2022-09-12T02:34:55.186Z,94831.03
2022-09-12T02:37:33.907Z,94821.16
2022-09-12T02:40:00.930Z,94830.88
2022-09-12T02:42:27.587Z,94826.38
2022-09-12T02:44:57.015Z,94823.91
2022-09-12T02:47:34.282Z,94826.91
2022-09-12T02:50:01.978Z,94830.03
2022-09-12T02:52:29.167Z,94825.13
2022-09-12T02:54:57.974Z,94829.84
2022-09-12T02:57:24.944Z,94826.06
2022-09-12T02:59:55.940Z,94831.81
2022-09-12T03:02:31.925Z,94837.09
2022-09-12T03:05:29.246Z,94843.22
2022-09-12T03:08:14.046Z,94839.81
2022-09-12T03:11:16.581Z,94839.56
2022-09-12T03:14:17.522Z,94842.94
2022-09-12T03:17:00.540Z,94838.22
2022-09-12T03:19:53.893Z,94845.00
2022-09-12T03:22:31.951Z,94850.47
2022-09-12T03:25:16.353Z,94800.75
2022-09-12T03:27:48.642Z,94842.94
2022-09-12T03:30:15.172Z,94845.56
2022-09-12T03:32:53.337Z,94843.19
2022-09-12T03:35:23.361Z,94826.75
2022-09-12T03:37:51.176Z,94838.59
2022-09-12T03:40:17.960Z,94841.72
2022-09-12T03:42:44.584Z,94823.50
2022-09-12T03:45:11.412Z,94835.31
2022-09-12T03:47:38.037Z,94820.91
2022-09-12T03:50:06.448Z,94834.09
2022-09-12T03:52:33.417Z,94768.16
2022-09-12T03:55:00.099Z,94834.94
2022-09-12T03:57:26.649Z,94833.44
2022-09-12T03:59:53.275Z,94822.59
2022-09-12T04:02:20.031Z,94837.66
2022-09-12T04:04:48.757Z,94847.84
2022-09-12T04:07:16.451Z,94834.84
2022-09-12T04:09:43.014Z,94842.56
2022-09-12T04:12:09.581Z,94838.16
2022-09-12T04:14:36.209Z,94842.94
2022-09-12T04:17:02.802Z,94842.19
2022-09-12T04:19:29.518Z,94841.53
2022-09-12T04:21:56.154Z,94857.34
2022-09-12T04:24:22.887Z,94849.63
2022-09-12T04:26:49.554Z,94846.47
2022-09-12T04:29:16.199Z,94854.66
2022-09-12T04:31:43.509Z,94857.66
2022-09-12T04:34:10.816Z,94858.38
2022-09-12T04:36:37.813Z,94865.41
2022-09-12T04:39:07.746Z,94862.41
2022-09-12T04:41:36.865Z,94876.06
2022-09-12T04:44:14.958Z,94869.59
2022-09-12T04:46:46.749Z,94872.41
2022-09-12T04:49:16.291Z,94875.19
2022-09-12T04:51:43.556Z,94876.44
2022-09-12T04:54:16.202Z,94871.06
2022-09-12T04:56:45.359Z,94875.66
2022-09-12T04:59:13.300Z,94872.97
2022-09-12T05:01:40.470Z,94868.31
2022-09-12T05:04:07.583Z,94874.91
2022-09-12T05:06:36.359Z,94877.22
2022-09-12T05:09:05.872Z,94871.22
2022-09-12T05:12:02.698Z,94871.31
2022-09-12T05:14:22.825Z,94857.53
2022-09-12T05:16:49.983Z,94872.06
2022-09-12T05:19:17.218Z,94857.88
2022-09-12T05:21:43.920Z,94862.13
2022-09-12T05:24:11.579Z,94854.88
2022-09-12T05:26:38.369Z,94865.13
2022-09-12T05:29:06.161Z,94862.13
2022-09-12T05:31:33.049Z,94859.88
2022-09-12T05:33:59.574Z,94867.09
2022-09-12T05:36:29.292Z,94862.66
2022-09-12T05:38:56.773Z,94862.94
2022-09-12T05:41:26.104Z,94851.94
2022-09-12T05:43:57.956Z,94850.69
2022-09-12T05:46:30.399Z,94855.13
2022-09-12T05:48:58.447Z,94853.84
2022-09-12T05:51:28.095Z,94849.69
2022-09-12T05:53:57.455Z,94839.44
2022-09-12T05:56:26.670Z,94843.50
2022-09-12T05:58:59.751Z,94836.13
2022-09-12T06:01:27.378Z,94833.84
2022-09-12T06:03:56.089Z,94837.31
2022-09-12T06:06:24.823Z,94841.78
2022-09-12T06:08:53.822Z,94836.91
2022-09-12T06:11:23.036Z,94833.94
2022-09-12T06:13:51.065Z,94836.69
2022-09-12T06:16:26.177Z,94835.16
2022-09-12T06:18:58.487Z,94843.44
2022-09-12T06:21:26.749Z,94837.91
2022-09-12T06:23:55.540Z,94840.91
2022-09-12T06:26:24.607Z,94847.38
2022-09-12T06:28:52.692Z,94850.09
2022-09-12T06:31:25.130Z,94849.34
2022-09-12T06:33:53.790Z,94841.44
2022-09-12T06:36:27.740Z,94857.66
2022-09-12T06:38:57.212Z,94854.19
2022-09-12T06:41:25.432Z,94855.72
2022-09-12T06:43:52.288Z,94859.94
2022-09-12T06:46:19.098Z,94854.22
2022-09-12T06:48:46.125Z,94858.44
2022-09-12T06:51:15.697Z,94850.19
2022-09-12T06:53:44.345Z,94870.66
2022-09-12T06:56:14.230Z,94844.34
2022-09-12T06:58:41.843Z,94864.41
2022-09-12T07:01:24.061Z,94867.47
2022-09-12T07:03:53.070Z,94871.81
2022-09-12T07:06:22.062Z,94873.25
2022-09-12T07:08:48.619Z,94865.81
2022-09-12T07:11:23.859Z,94876.72
2022-09-12T07:13:52.762Z,94875.31
2022-09-12T07:16:20.352Z,94870.25
2022-09-12T07:19:00.874Z,94867.19
2022-09-12T07:21:28.292Z,94882.16
2022-09-12T07:24:00.776Z,94877.84
2022-09-12T07:26:29.305Z,94878.19
2022-09-12T07:29:12.761Z,94879.31
2022-09-12T07:31:40.110Z,94869.56
2022-09-12T07:34:06.847Z,94874.13
2022-09-12T07:36:34.343Z,94878.88
2022-09-12T07:39:01.631Z,94866.16
2022-09-12T07:41:30.209Z,94868.41
2022-09-12T07:43:59.163Z,94880.16
2022-09-12T07:46:27.513Z,94868.81
2022-09-12T07:48:56.220Z,94870.44
2022-09-12T07:51:23.961Z,94868.16
2022-09-12T07:53:51.890Z,94874.78
2022-09-12T07:56:19.940Z,94863.03
2022-09-12T07:58:47.330Z,94870.38
2022-09-12T08:01:19.522Z,94874.31
2022-09-12T08:03:48.254Z,94880.81
2022-09-12T08:06:19.999Z,94871.09
2022-09-12T08:08:48.059Z,94873.28
2022-09-12T08:11:16.708Z,94880.47
2022-09-12T08:13:44.215Z,94869.53
2022-09-12T08:16:21.832Z,94865.66
2022-09-12T08:18:49.485Z,94865.38
2022-09-12T08:21:25.302Z,94858.69
2022-09-12T08:23:54.188Z,94784.63
2022-09-12T08:26:21.319Z,94867.06
2022-09-12T08:28:48.246Z,94866.75
2022-09-12T08:31:18.172Z,94864.09
2022-09-12T08:33:45.211Z,94872.69
2022-09-12T08:36:17.838Z,94867.59
2022-09-12T08:38:46.275Z,94858.25
2022-09-12T08:41:27.308Z,94842.53
2022-09-12T08:44:12.924Z,94853.75
2022-09-12T08:47:05.597Z,94848.56
2022-09-12T08:49:51.560Z,94855.59
2022-09-12T08:52:38.451Z,94850.66
2022-09-12T08:55:24.477Z,94825.84
2022-09-12T08:57:52.050Z,94836.97
2022-09-12T09:00:19.857Z,94827.69
2022-09-12T09:02:55.505Z,94843.66
2022-09-12T09:05:42.074Z,94847.03
2022-09-12T09:08:23.864Z,94842.81
2022-09-12T09:10:59.837Z,94853.00
2022-09-12T09:14:05.022Z,94841.56
2022-09-12T09:16:34.985Z,94851.81
2022-09-12T09:19:08.314Z,94839.16
2022-09-12T09:21:43.347Z,94845.16
2022-09-12T09:24:13.621Z,94849.47
2022-09-12T09:26:54.819Z,94854.44
2022-09-12T09:29:27.822Z,94838.91
2022-09-12T09:32:00.097Z,94854.31
2022-09-12T09:34:31.557Z,94843.13
2022-09-12T09:36:58.065Z,94844.53
2022-09-12T09:39:33.664Z,94845.41
2022-09-12T09:42:16.986Z,94839.81
2022-09-12T09:44:47.236Z,94834.34
2022-09-12T09:47:14.165Z,94843.81
2022-09-12T09:49:41.244Z,94834.88
2022-09-12T09:52:08.882Z,94827.31
2022-09-12T09:54:50.235Z,94832.28
2022-09-12T09:57:40.980Z,94829.91
2022-09-12T10:00:27.997Z,94832.84
2022-09-12T10:03:04.983Z,94838.84
2022-09-12T10:05:35.612Z,94829.47
2022-09-12T10:08:04.430Z,94824.25
2022-09-12T10:10:31.062Z,94824.38
2022-09-12T10:13:09.083Z,94831.09
2022-09-12T10:15:36.604Z,94819.72
2022-09-12T10:18:03.889Z,94819.75
2022-09-12T10:20:33.413Z,94824.97
2022-09-12T10:23:02.054Z,94825.78
2022-09-12T10:25:29.366Z,94822.19
2022-09-12T10:28:00.942Z,94819.34
2022-09-12T10:30:28.688Z,94795.47
2022-09-12T10:33:08.324Z,94803.06
2022-09-12T10:35:45.739Z,94824.22
2022-09-12T10:38:23.802Z,94818.69
2022-09-12T10:41:01.397Z,94814.13
2022-09-12T10:43:39.660Z,94817.19
2022-09-12T10:46:15.903Z,94808.09
2022-09-12T10:48:43.921Z,94806.72
2022-09-12T10:51:25.454Z,94828.31
2022-09-12T10:53:55.116Z,94817.09
2022-09-12T10:56:25.862Z,94809.34
2022-09-12T10:58:58.374Z,94817.25
2022-09-12T11:01:49.457Z,94844.91
2022-09-12T11:04:42.101Z,94813.59
2022-09-12T11:07:34.051Z,94817.13
2022-09-12T11:10:26.878Z,94805.94
2022-09-12T11:12:59.819Z,94810.59
2022-09-12T11:16:03.844Z,94808.38
2022-09-12T11:18:56.635Z,94808.59
2022-09-12T11:21:46.264Z,94810.03
2022-09-12T11:24:31.326Z,94820.91
2022-09-12T11:27:08.851Z,94811.09
2022-09-12T11:29:57.687Z,94821.00
2022-09-12T11:32:36.437Z,94815.13
2022-09-12T11:35:26.191Z,94819.19
2022-09-12T11:38:14.894Z,94816.72
2022-09-12T11:41:04.573Z,94816.34
2022-09-12T11:43:58.089Z,94784.66
2022-09-12T11:46:36.276Z,94812.47
2022-09-12T11:49:12.319Z,94809.19
2022-09-12T11:51:42.495Z,94807.47
2022-09-12T11:54:39.893Z,94819.25
2022-09-12T11:57:43.542Z,94813.47
2022-09-12T12:00:35.209Z,94803.22
2022-09-12T12:03:30.886Z,94807.88
2022-09-12T12:06:19.340Z,94813.38
2022-09-12T12:08:48.090Z,94824.94
2022-09-12T12:11:26.257Z,94809.91
2022-09-12T12:14:13.151Z,94800.44
2022-09-12T12:16:41.119Z,94809.81
2022-09-12T12:19:16.714Z,94799.31
2022-09-12T12:21:53.011Z,94796.94
2022-09-12T12:24:22.746Z,94794.78
2022-09-12T12:26:57.464Z,94799.47
2022-09-12T12:29:23.969Z,94796.94
2022-09-12T12:31:59.349Z,94794.19
2022-09-12T12:34:39.559Z,94798.00
2022-09-12T12:37:32.152Z,94796.72
2022-09-12T12:40:08.218Z,94787.31
2022-09-12T12:42:37.306Z,94817.81
2022-09-12T12:45:06.852Z,94802.31
2022-09-12T12:47:42.977Z,94810.53
2022-09-12T12:50:23.912Z,94798.22
2022-09-12T12:52:58.598Z,94802.34
2022-09-12T12:55:31.247Z,94786.31
2022-09-12T12:58:02.406Z,94784.66
2022-09-12T13:00:40.049Z,94791.75
2022-09-12T13:03:11.697Z,94798.16
2022-09-12T13:05:43.205Z,94791.69
2022-09-12T13:08:28.678Z,94785.84
2022-09-12T13:11:03.081Z,94799.66
2022-09-12T13:13:49.461Z,94799.00
2022-09-12T13:16:37.976Z,94786.47
2022-09-12T13:19:18.129Z,94777.72
2022-09-12T13:22:02.932Z,94792.03
2022-09-12T13:24:29.588Z,94775.44
2022-09-12T13:26:57.759Z,94790.69
2022-09-12T13:29:26.841Z,94798.25
2022-09-12T13:31:59.261Z,94798.63
2022-09-12T13:34:30.417Z,94795.91
2022-09-12T13:37:16.010Z,94789.13
2022-09-12T13:40:10.653Z,94798.72
2022-09-12T13:42:49.635Z,94791.84
2022-09-12T13:45:29.960Z,94798.59
2022-09-12T13:48:00.677Z,94791.19
2022-09-12T13:50:32.247Z,94788.13
2022-09-12T13:53:02.329Z,94784.75
2022-09-12T13:55:37.109Z,94788.88
2022-09-12T13:58:06.525Z,94734.31
2022-09-12T14:00:35.065Z,94788.38
2022-09-12T14:03:31.878Z,94793.50
2022-09-12T14:05:59.294Z,94791.66
2022-09-12T14:08:27.010Z,94785.47
2022-09-12T14:10:55.022Z,94784.28
2022-09-12T14:13:24.998Z,94785.34
2022-09-12T14:15:54.307Z,94786.50
2022-09-12T14:18:36.641Z,94786.97
2022-09-12T14:21:12.784Z,94788.94
2022-09-12T14:23:42.623Z,94783.16
2022-09-12T14:26:14.237Z,94796.41
2022-09-12T14:28:42.973Z,94792.13
2022-09-12T14:31:12.560Z,94792.81
2022-09-12T14:33:49.651Z,94793.00
2022-09-12T14:36:32.185Z,94801.28
2022-09-12T14:39:06.031Z,94803.69
2022-09-12T14:41:36.783Z,94794.50
2022-09-12T14:44:08.705Z,94804.44
2022-09-12T14:46:40.954Z,94777.84
2022-09-12T14:49:21.675Z,94805.63
2022-09-12T14:51:51.461Z,94800.16
2022-09-12T14:54:30.341Z,94795.06
2022-09-12T14:57:05.909Z,94794.13
2022-09-12T14:59:35.970Z,94801.91
2022-09-12T15:02:20.953Z,94802.75
2022-09-12T15:05:04.323Z,94805.28
2022-09-12T15:07:36.979Z,94795.25
2022-09-12T15:10:31.039Z,94797.31
2022-09-12T15:13:09.715Z,94787.53
2022-09-12T15:15:38.486Z,94785.53
2022-09-12T15:18:06.944Z,94790.84
2022-09-12T15:20:38.949Z,94777.56
2022-09-12T15:23:10.917Z,94785.75
2022-09-12T15:25:37.312Z,94795.09
2022-09-12T15:28:16.099Z,94797.91
2022-09-12T15:30:43.212Z,94797.09
2022-09-12T15:33:11.976Z,94795.16
2022-09-12T15:35:39.275Z,94791.91
2022-09-12T15:38:05.954Z,94797.97
2022-09-12T15:40:32.847Z,94792.72
2022-09-12T15:42:59.427Z,94791.25
2022-09-12T15:45:31.461Z,94794.53
2022-09-12T15:47:59.741Z,94794.06
2022-09-12T15:50:28.106Z,94779.06
2022-09-12T15:52:55.684Z,94782.75
2022-09-12T15:55:25.546Z,94784.53
2022-09-12T15:57:52.267Z,94780.94
2022-09-12T16:00:19.609Z,94790.06
2022-09-12T16:02:49.156Z,94778.56
2022-09-12T16:05:20.806Z,94781.50
2022-09-12T16:07:49.303Z,94783.53
2022-09-12T16:10:20.326Z,94786.78
2022-09-12T16:12:46.939Z,94784.75
2022-09-12T16:15:16.776Z,94794.09
2022-09-12T16:17:43.469Z,94788.63
2022-09-12T16:20:10.965Z,94771.81
2022-09-12T16:22:38.112Z,94803.78
2022-09-12T16:25:06.151Z,94793.50
2022-09-12T16:27:33.222Z,94806.50
2022-09-12T16:30:00.040Z,94805.03
2022-09-12T16:32:26.929Z,94806.03
2022-09-12T16:34:53.849Z,94804.06
2022-09-12T16:37:20.476Z,94807.19
2022-09-12T16:39:48.925Z,94802.94
2022-09-12T16:42:19.385Z,94807.25
2022-09-12T16:44:47.244Z,94800.81
2022-09-12T16:47:14.650Z,94800.34
2022-09-12T16:49:41.258Z,94802.34
2022-09-12T16:52:08.186Z,94807.88
2022-09-12T16:54:34.825Z,94800.16
2022-09-12T16:57:01.574Z,94814.66
2022-09-12T16:59:29.887Z,94810.16
2022-09-12T17:01:56.546Z,94810.66
2022-09-12T17:04:23.798Z,94809.94
2022-09-12T17:06:50.518Z,94816.19
2022-09-12T17:09:18.741Z,94814.44
2022-09-12T17:11:50.377Z,94818.19
2022-09-12T17:14:17.232Z,94820.69
2022-09-12T17:16:51.417Z,94831.69
2022-09-12T17:19:21.533Z,94831.47
2022-09-12T17:21:49.940Z,94818.44
2022-09-12T17:24:17.685Z,94824.44
2022-09-12T17:26:44.899Z,94819.94
2022-09-12T17:29:15.850Z,94827.69
2022-09-12T17:31:43.831Z,94831.19
2022-09-12T17:34:14.565Z,94833.94
2022-09-12T17:36:45.505Z,94842.91
2022-09-12T17:39:13.673Z,94841.88
2022-09-12T17:41:42.875Z,94845.88
2022-09-12T17:44:11.930Z,94845.63
2022-09-12T17:46:39.448Z,94847.34
2022-09-12T17:49:11.885Z,94848.09
2022-09-12T17:51:39.553Z,94845.09
2022-09-12T17:54:11.872Z,94841.84
2022-09-12T17:56:39.152Z,94859.56
2022-09-12T17:59:08.101Z,94856.06
2022-09-12T18:01:53.559Z,94857.56
2022-09-12T18:04:20.594Z,94857.06
2022-09-12T18:06:50.457Z,94859.50
2022-09-12T18:09:19.613Z,94848.03
2022-09-12T18:11:48.147Z,94853.72
2022-09-12T18:14:15.187Z,94845.47
2022-09-12T18:16:42.667Z,94858.19
2022-09-12T18:19:09.771Z,94856.94
2022-09-12T18:21:36.379Z,94853.69
2022-09-12T18:24:03.463Z,94857.44
2022-09-12T18:26:31.170Z,94854.94
2022-09-12T18:28:57.836Z,94857.94
2022-09-12T18:31:27.634Z,94858.16
2022-09-12T18:33:54.745Z,94845.38
2022-09-12T18:36:21.757Z,94863.63
2022-09-12T18:38:49.656Z,94861.63
2022-09-12T18:41:22.245Z,94860.63
2022-09-12T18:43:49.919Z,94860.34
2022-09-12T18:46:18.589Z,94850.88
2022-09-12T18:48:46.006Z,94847.16
2022-09-12T18:51:20.049Z,94840.41
2022-09-12T18:53:54.745Z,94858.72
2022-09-12T18:56:23.172Z,94858.44
2022-09-12T18:58:52.629Z,94857.69
2022-09-12T19:01:24.760Z,94858.69
2022-09-12T19:03:55.634Z,94858.91
2022-09-12T19:06:28.258Z,94857.16
2022-09-12T19:08:56.279Z,94854.16
2022-09-12T19:11:24.506Z,94854.66
2022-09-12T19:13:53.156Z,94849.41
2022-09-12T19:16:22.733Z,94854.94
2022-09-12T19:18:50.882Z,94851.94
2022-09-12T19:21:23.039Z,94854.94
2022-09-12T19:23:50.464Z,94850.94
2022-09-12T19:26:18.797Z,94841.47
2022-09-12T19:28:46.048Z,94861.47
2022-09-12T19:31:15.027Z,94852.97
2022-09-12T19:33:42.272Z,94856.22
2022-09-12T19:36:27.666Z,94848.25
2022-09-12T19:39:00.705Z,94847.25
2022-09-12T19:41:27.573Z,94849.72
2022-09-12T19:43:56.157Z,94861.72
2022-09-12T19:46:24.858Z,94849.22
2022-09-12T19:48:52.720Z,94847.97
2022-09-12T19:51:21.172Z,94864.66
2022-09-12T19:53:50.191Z,94863.19
2022-09-12T19:56:16.987Z,94868.91
2022-09-12T19:58:45.921Z,94872.66
2022-09-12T20:01:19.970Z,94871.66
2022-09-12T20:03:47.119Z,94864.91
2022-09-12T20:06:17.440Z,94874.91
2022-09-12T20:08:44.884Z,94881.38
2022-09-12T20:11:14.263Z,94880.84
2022-09-12T20:13:41.203Z,94877.31
2022-09-12T20:16:21.406Z,94877.56
2022-09-12T20:18:56.058Z,94869.81
2022-09-12T20:21:25.491Z,94865.78
2022-09-12T20:23:52.207Z,94867.97
2022-09-12T20:26:20.272Z,94880.25
2022-09-12T20:28:47.124Z,94873.91
2022-09-12T20:31:15.663Z,94878.88
2022-09-12T20:33:43.334Z,94877.81
2022-09-12T20:36:12.930Z,94876.31
2022-09-12T20:38:40.507Z,94882.28
2022-09-12T20:41:10.068Z,94878.53
2022-09-12T20:43:38.660Z,94889.41
2022-09-12T20:46:11.049Z,94886.13
2022-09-12T20:48:38.842Z,94881.34
2022-09-12T20:51:06.402Z,94886.84
2022-09-12T20:53:35.273Z,94880.78
2022-09-12T20:56:03.807Z,94889.94
2022-09-12T20:58:30.395Z,94868.88
2022-09-12T21:00:57.319Z,94874.03
2022-09-12T21:03:25.460Z,94863.50
2022-09-12T21:05:52.122Z,94887.00
2022-09-12T21:08:18.703Z,94887.47
2022-09-12T21:10:45.268Z,94889.41
2022-09-12T21:13:12.792Z,94895.09
2022-09-12T21:15:40.736Z,94898.81
2022-09-12T21:18:07.843Z,94894.78
2022-09-12T21:20:34.735Z,94897.03
2022-09-12T21:23:01.724Z,94895.75
2022-09-12T21:25:29.337Z,94895.03
2022-09-12T21:27:55.955Z,94893.78
2022-09-12T21:30:22.612Z,94895.25
2022-09-12T21:32:49.193Z,94890.41
2022-09-12T21:35:16.283Z,94895.63
2022-09-12T21:37:42.833Z,94901.03
2022-09-12T21:40:09.864Z,94901.31
2022-09-12T21:42:36.446Z,94902.53
2022-09-12T21:45:03.086Z,94904.19
2022-09-12T21:47:29.681Z,94900.06
2022-09-12T21:49:56.324Z,94903.06
2022-09-12T21:52:22.891Z,94900.63
2022-09-12T21:54:49.434Z,94906.25
2022-09-12T21:57:16.034Z,94899.06
2022-09-12T21:59:42.646Z,94893.03
2022-09-12T22:02:10.863Z,94882.09
2022-09-12T22:04:37.596Z,94877.56
2022-09-12T22:07:05.346Z,94883.16
2022-09-12T22:09:32.893Z,94873.44
2022-09-12T22:11:59.480Z,94866.13
2022-09-12T22:14:26.340Z,94879.13
2022-09-12T22:16:52.905Z,94874.06
2022-09-12T22:19:19.722Z,94878.03
2022-09-12T22:22:05.322Z,94879.25
2022-09-12T22:24:31.887Z,94871.28
2022-09-12T22:26:59.272Z,94884.25
2022-09-12T22:29:26.807Z,94890.56
2022-09-12T22:31:53.831Z,94875.56
2022-09-12T22:34:20.417Z,94871.19
2022-09-12T22:36:50.170Z,94879.94
2022-09-12T22:39:16.820Z,94885.44
2022-09-12T22:41:43.588Z,94868.94
2022-09-12T22:44:11.344Z,94878.56
2022-09-12T22:46:38.419Z,94890.47
2022-09-12T22:49:06.853Z,94900.41
2022-09-12T22:51:34.007Z,94888.00
2022-09-12T22:54:00.629Z,94885.22
2022-09-12T22:56:27.672Z,94890.97
2022-09-12T22:58:54.487Z,94858.31
2022-09-12T23:01:21.379Z,94882.97
2022-09-12T23:03:48.165Z,94884.47
2022-09-12T23:06:16.572Z,94879.53
2022-09-12T23:08:43.448Z,94873.25
2022-09-12T23:11:15.278Z,94869.59
2022-09-12T23:13:43.933Z,94866.59
2022-09-12T23:16:17.081Z,94868.31
2022-09-12T23:18:44.193Z,94860.03
2022-09-12T23:21:12.716Z,94858.03
2022-09-12T23:23:39.969Z,94858.47
2022-09-12T23:26:19.813Z,94853.53
2022-09-12T23:28:53.674Z,94860.31
2022-09-12T23:31:21.821Z,94857.38
2022-09-12T23:33:49.562Z,94847.41
2022-09-12T23:36:16.496Z,94857.84
2022-09-12T23:38:45.098Z,94857.44
2022-09-12T23:41:13.157Z,94854.22
2022-09-12T23:43:39.940Z,94854.28
2022-09-12T23:46:06.832Z,94846.91
2022-09-12T23:48:34.247Z,94852.88
2022-09-12T23:51:02.136Z,94849.53
2022-09-12T23:53:29.384Z,94846.44
2022-09-12T23:55:56.089Z,94848.59
2022-09-12T23:58:23.167Z,94849.66
